Pensacola NAS, Florida
Current Conditions -  °F | °C
As of 8:29 PM on Sunday 23 Nov 2014 (Local Time) from KNPA Reporting Station
Broken Clouds Broken Clouds  
Wind Chill: 68°   Ceiling: 1200
Heat Index: 68°   Visibility: 7mi
Dew Point: 67°   Wind: 10mph
Humidity: 96%   Direction: 200°SSW
Pressure: 29.76"   Gusts: NA
Location:  30.35°N, 87.32°W
Report Text: KNPA 240229Z 20009KT 7SM BKN012 20/19 A2976 RMK AO2 T02000194
Loading
Personal Weather Stations






























Interactive Weather Map New forecast layout! Learn more

10-Day Weather Forecast

Advertisements
Track Severe Weather on mobile